Alcalde, Kentucky
Current Conditions -  °F | °C
As of 10:35 PM on Friday 28 Nov 2014 (Local Time) from KSME Reporting Station
Clear Clear  
Wind Chill: -2°   Ceiling: Unl
Heat Index:   Visibility: 10mi
Dew Point: -7°   Wind: 6mph
Humidity: 56%   Direction: 170°S
Pressure: 30.15"   Gusts: NA
Location:  37.0813°N, 84.4741°W
Report Text: KSME 290335Z AUTO 17005KT 10SM CLR 01/M07 A3015 RMK AO2
Loading
Personal Weather Stations






























Interactive Weather Map New forecast layout! Learn more

10-Day Weather Forecast

Advertisements
Track Severe Weather on mobile